TimeMST,TemperatureF,Dew PointF,Humidity,Sea Level PressureIn,VisibilityMPH,Wind Direction,Wind SpeedMPH,Gust SpeedMPH,PrecipitationIn,Events,Conditions,WindDirDegrees,DateUTC
12:53 AM,17.1,1.9,52,30.15,10.0,SSW,10.4,-,N/A,,Clear,210,2014-01-29 07:53:00
1:53 AM,10.9,3.0,70,30.14,10.0,West,16.1,-,N/A,,Clear,260,2014-01-29 08:53:00
2:53 AM,10.9,3.0,70,30.11,10.0,West,17.3,-,N/A,,Clear,260,2014-01-29 09:53:00
3:53 AM,10.9,3.0,70,30.10,10.0,West,17.3,-,N/A,,Clear,260,2014-01-29 10:53:00
4:53 AM,10.9,3.9,73,30.10,10.0,West,12.7,-,N/A,,Clear,260,2014-01-29 11:53:00
5:53 AM,10.0,3.0,73,30.11,10.0,West,6.9,-,N/A,,Clear,260,2014-01-29 12:53:00
6:53 AM,10.0,3.0,73,30.11,10.0,WSW,11.5,-,N/A,,Clear,240,2014-01-29 13:53:00
7:53 AM,21.0,6.1,53,30.04,10.0,SW,11.5,-,N/A,,Clear,220,2014-01-29 14:53:00
8:53 AM,28.9,10.0,45,30.03,10.0,West,12.7,-,N/A,,Clear,260,2014-01-29 15:53:00
9:53 AM,34.0,12.9,42,30.01,10.0,SW,12.7,-,N/A,,Clear,230,2014-01-29 16:53:00
10:53 AM,39.9,16.0,38,29.94,10.0,SSW,12.7,-,N/A,,Clear,210,2014-01-29 17:53:00
11:53 AM,44.1,19.0,37,29.91,10.0,SW,11.5,-,N/A,,Clear,220,2014-01-29 18:53:00
12:53 PM,46.9,19.0,33,29.84,10.0,SW,12.7,-,N/A,,Clear,220,2014-01-29 19:53:00
1:53 PM,50.0,16.0,26,29.81,10.0,SSW,16.1,-,N/A,,Clear,210,2014-01-29 20:53:00
2:53 PM,50.0,19.9,31,29.77,10.0,SW,13.8,-,N/A,,Clear,220,2014-01-29 21:53:00
3:53 PM,48.0,19.0,32,29.74,10.0,SSW,10.4,-,N/A,,Clear,200,2014-01-29 22:53:00
4:53 PM,42.1,23.0,47,29.71,10.0,South,12.7,-,N/A,,Clear,190,2014-01-29 23:53:00
5:53 PM,39.9,23.0,51,29.70,10.0,South,13.8,-,N/A,,Overcast,190,2014-01-30 00:53:00
6:53 PM,42.1,19.9,41,29.65,10.0,SSW,17.3,-,N/A,,Overcast,200,2014-01-30 01:53:00
7:53 PM,44.1,19.9,38,29.56,10.0,SSW,18.4,25.3,N/A,,Overcast,210,2014-01-30 02:53:00
8:53 PM,42.1,19.9,41,29.48,10.0,SSW,18.4,26.5,N/A,,Clear,210,2014-01-30 03:53:00
9:53 PM,41.0,21.9,47,29.47,10.0,SW,18.4,-,N/A,,Clear,230,2014-01-30 04:53:00
10:53 PM,43.0,24.1,47,29.43,10.0,SW,16.1,-,N/A,,Clear,230,2014-01-30 05:53:00
11:53 PM,42.1,25.0,51,29.40,10.0,SW,15.0,-,N/A,,Clear,230,2014-01-30 06:53:00